Time;durP1;ratioP1;P1;durP2;ratioP2;P2;SDS_P1;SDS_P2;PMS_P1;PMS_P2;Temp;Humidity;BMP_temperature;BMP_pressure;BME280_temperature;BME280_humidity;BME280_pressure;Samples;Min_cycle;Max_cycle;Signal;HPM_P1;HPM_P2
2023/07/08 00:00:51;;;;;;;13.25;6.70;;;;;;;21.71;43.84;96688.19;4962311;28;20051;-67
2023/07/08 00:03:18;;;;;;;14.63;7.38;;;;;;;21.72;43.73;96681.41;4958232;28;20054;-68
2023/07/08 00:05:45;;;;;;;11.88;6.22;;;;;;;21.61;44.09;96680.91;4960754;28;20504;-67
2023/07/08 00:08:15;;;;;;;13.88;6.72;;;;;;;21.56;44.24;96683.00;4960399;28;20042;-68
2023/07/08 00:10:40;;;;;;;11.00;6.35;;;;;;;21.44;44.83;96688.50;4966268;28;20046;-68
2023/07/08 00:13:05;;;;;;;12.50;6.53;;;;;;;21.39;44.99;96682.25;4961097;28;20049;-67
2023/07/08 00:15:32;;;;;;;8.98;5.68;;;;;;;21.38;45.12;96679.91;4965708;28;20042;-67
2023/07/08 00:17:58;;;;;;;14.13;6.35;;;;;;;21.36;45.11;96674.00;4967442;28;20107;-68
2023/07/08 00:20:36;;;;;;;16.50;6.40;;;;;;;21.38;45.11;96677.88;4962913;28;20077;-67
2023/07/08 00:23:02;;;;;;;13.52;6.50;;;;;;;21.34;45.68;96676.44;4966768;28;20046;-66
2023/07/08 00:25:29;;;;;;;11.77;6.35;;;;;;;21.34;45.18;96676.44;4963752;28;20042;-68
2023/07/08 00:27:54;;;;;;;11.93;6.80;;;;;;;21.28;45.60;96669.81;4965627;28;20054;-68
2023/07/08 00:30:26;;;;;;;13.60;6.60;;;;;;;21.34;45.20;96668.06;4960959;28;20035;-68
2023/07/08 00:32:56;;;;;;;11.93;7.38;;;;;;;21.33;45.43;96672.84;4963129;28;20142;-67
2023/07/08 00:35:38;;;;;;;11.25;6.28;;;;;;;21.33;45.55;96678.41;4960104;28;20248;-68
2023/07/08 00:38:15;;;;;;;9.25;5.32;;;;;;;21.34;45.21;96682.78;4954442;28;20043;-66
2023/07/08 00:41:21;;;;;;;13.98;6.30;;;;;;;21.34;45.45;96690.38;4965186;28;20628;-68
2023/07/08 00:43:49;;;;;;;11.73;5.95;;;;;;;21.29;45.43;96688.88;4947165;28;20046;-69
2023/07/08 00:46:23;;;;;;;16.83;6.65;;;;;;;21.25;46.45;96699.34;4960974;28;20144;-68
2023/07/08 00:48:51;;;;;;;13.02;6.18;;;;;;;21.37;46.30;96697.81;4965102;28;20071;-69
2023/07/08 00:51:19;;;;;;;10.27;5.80;;;;;;;21.37;45.92;96700.59;4960659;28;20043;-68
2023/07/08 00:53:45;;;;;;;15.52;6.90;;;;;;;21.32;46.48;96701.13;4965400;28;20050;-68
2023/07/08 00:56:28;;;;;;;11.63;6.07;;;;;;;21.37;46.32;96697.81;4960323;28;20498;-68
2023/07/08 00:59:19;;;;;;;13.20;6.10;;;;;;;21.34;47.95;96704.28;4964820;28;20061;-70
2023/07/08 01:01:45;;;;;;;15.35;6.22;;;;;;;21.24;49.35;96711.69;4963988;28;20050;-68
2023/07/08 01:04:18;;;;;;;10.40;6.00;;;;;;;21.24;49.89;96706.13;4944801;28;20038;-69
2023/07/08 01:06:52;;;;;;;12.73;6.10;;;;;;;21.32;50.41;96709.50;4965005;28;20038;-69
2023/07/08 01:09:18;;;;;;;13.43;6.70;;;;;;;21.27;51.44;96723.97;4960460;28;20043;-68
2023/07/08 01:11:45;;;;;;;10.82;5.78;;;;;;;21.05;52.30;96746.00;4964705;28;20049;-69
2023/07/08 01:14:15;;;;;;;10.82;5.82;;;;;;;20.66;54.22;96793.03;4955544;28;20054;-69
2023/07/08 01:16:40;;;;;;;13.10;6.53;;;;;;;20.42;52.13;96815.34;4965416;28;20503;-69
2023/07/08 01:19:14;;;;;;;13.20;6.38;;;;;;;20.47;53.59;96811.28;4959098;28;20047;-68
2023/07/08 01:22:04;;;;;;;13.18;6.30;;;;;;;20.73;54.53;96804.00;4964007;28;20366;-68
2023/07/08 01:24:33;;;;;;;9.65;5.22;;;;;;;20.83;55.02;96830.00;4963005;28;20039;-69
2023/07/08 01:27:00;;;;;;;17.27;6.60;;;;;;;20.77;55.72;96831.75;4964570;28;20428;-68
2023/07/08 01:29:26;;;;;;;12.48;5.60;;;;;;;20.88;56.28;96806.44;4960646;28;20138;-68
2023/07/08 01:31:54;;;;;;;12.40;5.50;;;;;;;21.03;56.01;96804.13;4962841;28;20145;-67
2023/07/08 01:34:19;;;;;;;15.85;6.05;;;;;;;21.05;55.98;96818.38;4959947;28;20042;-67
2023/07/08 01:36:49;;;;;;;13.93;5.72;;;;;;;21.06;56.78;96797.69;4959029;28;20034;-69
2023/07/08 01:39:19;;;;;;;16.92;6.22;;;;;;;21.27;59.09;96799.19;4959732;28;20154;-68
2023/07/08 01:41:45;;;;;;;14.05;6.20;;;;;;;21.20;61.32;96794.56;4963992;28;20404;-69
2023/07/08 01:44:37;;;;;;;12.20;6.63;;;;;;;21.15;63.75;96787.50;4958497;28;20031;-69
2023/07/08 01:47:13;;;;;;;18.25;7.13;;;;;;;21.01;65.76;96776.69;4957782;28;20161;-65
2023/07/08 01:49:41;;;;;;;17.77;6.90;;;;;;;20.89;66.93;96772.63;4963821;28;20098;-68
2023/07/08 01:52:08;;;;;;;18.30;7.30;;;;;;;20.74;68.86;96771.38;4959279;28;20042;-67
2023/07/08 01:54:34;;;;;;;14.30;6.53;;;;;;;20.73;68.00;96762.25;4963862;28;20475;-68
2023/07/08 01:57:00;;;;;;;16.10;6.78;;;;;;;20.68;68.76;96765.53;4964093;28;20046;-68
2023/07/08 01:59:26;;;;;;;13.95;7.07;;;;;;;20.62;68.49;96775.63;4958278;28;20047;-68
2023/07/08 02:01:54;;;;;;;11.43;6.68;;;;;;;20.58;68.36;96772.91;4963690;28;20050;-68
2023/07/08 02:04:21;;;;;;;19.35;6.80;;;;;;;20.49;67.56;96777.47;4958514;28;20388;-69
2023/07/08 02:06:55;;;;;;;13.35;6.07;;;;;;;20.32;69.19;96765.50;4947166;28;20133;-68
2023/07/08 02:09:20;;;;;;;12.23;6.15;;;;;;;20.56;62.33;96749.47;4958950;28;20039;-69
2023/07/08 02:11:45;;;;;;;13.27;7.25;;;;;;;20.58;62.16;96758.19;4963575;28;20050;-68
2023/07/08 02:14:11;;;;;;;17.55;6.50;;;;;;;20.68;64.30;96768.31;4959323;28;20046;-68
2023/07/08 02:16:36;;;;;;;16.27;6.72;;;;;;;20.34;67.65;96763.84;4964092;28;20385;-69
2023/07/08 02:19:01;;;;;;;11.75;6.00;;;;;;;20.16;66.90;96757.91;4944743;28;20110;-65
2023/07/08 02:21:30;;;;;;;13.20;5.95;;;;;;;20.22;65.98;96750.59;4940809;29;20035;-65
2023/07/08 02:23:57;;;;;;;14.97;6.63;;;;;;;20.33;63.62;96751.19;4944706;28;20101;-69
2023/07/08 02:26:28;;;;;;;16.25;7.18;;;;;;;20.29;63.71;96755.25;4947186;28;20290;-68
2023/07/08 02:28:53;;;;;;;15.48;6.30;;;;;;;20.18;64.69;96777.72;4947768;29;20039;-67
2023/07/08 02:31:19;;;;;;;10.30;5.65;;;;;;;20.28;63.81;96764.81;4944052;28;20046;-68
2023/07/08 02:33:44;;;;;;;12.75;5.93;;;;;;;20.30;63.97;96762.38;4944629;28;20051;-68
2023/07/08 02:36:10;;;;;;;13.55;5.53;;;;;;;20.10;64.86;96757.63;4945557;28;20113;-68
2023/07/08 02:38:35;;;;;;;14.95;5.93;;;;;;;19.99;66.86;96743.16;4959423;28;20407;-69
2023/07/08 02:41:01;;;;;;;11.85;5.55;;;;;;;20.07;66.79;96730.66;4963196;28;20043;-68
2023/07/08 02:43:26;;;;;;;16.88;6.22;;;;;;;20.31;66.78;96783.41;4958988;28;20046;-67
2023/07/08 02:45:52;;;;;;;12.45;5.65;;;;;;;20.02;73.32;96782.00;4962800;28;20043;-68
2023/07/08 02:48:19;;;;;;;13.95;6.13;;;;;;;19.90;76.55;96776.28;4958111;28;20035;-69
2023/07/08 02:50:44;;;;;;;19.38;6.78;;;;;;;19.58;81.38;96753.41;4964030;28;20046;-68
2023/07/08 02:53:09;;;;;;;18.25;6.38;;;;;;;19.34;83.08;96735.22;4962080;28;20050;-69
2023/07/08 02:55:35;;;;;;;9.20;5.25;;;;;;;19.75;77.98;96751.53;4978844;28;20043;-67
2023/07/08 02:58:00;;;;;;;14.15;6.10;;;;;;;20.02;79.34;96750.63;4966151;28;20042;-67
2023/07/08 03:00:26;;;;;;;14.93;7.07;;;;;;;19.94;82.62;96744.44;4958255;28;20053;-68
2023/07/08 03:02:51;;;;;;;17.50;6.32;;;;;;;19.95;84.78;96750.75;4962455;28;20066;-68
2023/07/08 03:05:17;;;;;;;27.23;6.88;;;;;;;19.88;89.05;96754.50;4957229;28;20050;-68
2023/07/08 03:07:42;;;;;;;14.57;6.28;;;;;;;19.75;87.97;96768.22;4946040;28;20038;-68
2023/07/08 03:10:08;;;;;;;18.45;6.32;;;;;;;19.74;91.46;96774.22;4957499;28;20047;-69
2023/07/08 03:12:34;;;;;;;15.57;7.88;;;;;;;19.15;94.46;96751.41;4963292;28;20039;-68
2023/07/08 03:14:59;;;;;;;13.85;6.32;;;;;;;18.96;98.84;96754.88;4960683;28;20050;-69
2023/07/08 03:17:24;;;;;;;13.77;6.25;;;;;;;18.97;99.39;96771.13;4959089;28;20050;-69
2023/07/08 03:19:50;;;;;;;13.32;6.45;;;;;;;19.03;100.00;96774.19;4962156;28;20038;-68
2023/07/08 03:22:15;;;;;;;14.73;6.50;;;;;;;18.94;100.00;96774.72;4958605;28;20066;-68
2023/07/08 03:24:45;;;;;;;23.40;6.78;;;;;;;18.78;100.00;96760.69;4963094;28;20043;-68
2023/07/08 03:27:14;;;;;;;13.27;7.05;;;;;;;17.91;100.00;96764.59;4957458;28;20043;-68
2023/07/08 03:29:40;;;;;;;22.47;7.67;;;;;;;17.07;100.00;96757.50;4962709;28;20050;-68
2023/07/08 03:32:09;;;;;;;17.48;7.72;;;;;;;17.13;100.00;96744.78;4956361;28;20043;-68
2023/07/08 03:34:34;;;;;;;15.82;6.53;;;;;;;17.41;100.00;96764.31;4961915;28;20489;-68
2023/07/08 03:37:00;;;;;;;15.93;8.10;;;;;;;17.63;100.00;96759.34;4952299;28;20050;-68
2023/07/08 03:39:25;;;;;;;14.40;7.05;;;;;;;17.92;100.00;96770.94;4922650;28;20046;-68
2023/07/08 03:41:51;;;;;;;17.48;7.43;;;;;;;18.05;100.00;96777.50;4962701;28;20043;-72
2023/07/08 03:44:17;;;;;;;17.77;7.15;;;;;;;18.01;100.00;96774.00;4960858;28;20039;-68
2023/07/08 03:46:44;;;;;;;16.17;8.15;;;;;;;17.36;100.00;96768.31;4965726;28;20065;-68
2023/07/08 03:49:10;;;;;;;19.60;7.78;;;;;;;17.14;100.00;96762.97;4960791;28;20046;-68
2023/07/08 03:51:39;;;;;;;14.73;7.75;;;;;;;16.77;100.00;96753.34;4966641;28;20400;-68
2023/07/08 03:54:06;;;;;;;15.65;8.02;;;;;;;16.72;100.00;96741.94;4960520;28;20039;-67
2023/07/08 03:56:32;;;;;;;17.95;7.07;;;;;;;16.96;100.00;96738.22;4966118;28;20031;-69
2023/07/08 03:58:58;;;;;;;15.00;7.05;;;;;;;17.13;100.00;96760.63;4966173;28;20049;-69
2023/07/08 04:01:25;;;;;;;15.25;6.78;;;;;;;17.41;100.00;96800.31;4961385;28;20600;-67
2023/07/08 04:03:53;;;;;;;24.95;7.05;;;;;;;17.80;100.00;96813.75;4965631;28;20081;-67
2023/07/08 04:06:19;;;;;;;11.52;5.95;;;;;;;17.88;100.00;96808.97;4961291;28;20118;-67
2023/07/08 04:08:44;;;;;;;17.63;6.82;;;;;;;17.99;100.00;96808.84;4965734;28;20113;-67
2023/07/08 04:11:15;;;;;;;11.38;6.60;;;;;;;18.11;100.00;96811.88;4961028;28;20043;-66
2023/07/08 04:13:41;;;;;;;14.60;6.50;;;;;;;18.10;100.00;96812.31;4964743;28;20058;-67
2023/07/08 04:16:08;;;;;;;17.60;9.73;;;;;;;17.89;100.00;96808.56;4960586;28;20038;-68
2023/07/08 04:18:33;;;;;;;24.58;10.13;;;;;;;17.65;100.00;96810.38;4965284;28;20046;-67
2023/07/08 04:20:59;;;;;;;13.55;7.25;;;;;;;17.44;100.00;96808.56;4965710;28;20047;-66
2023/07/08 04:23:25;;;;;;;21.00;6.90;;;;;;;17.57;100.00;96808.84;4961313;28;20113;-68
2023/07/08 04:25:54;;;;;;;17.67;6.65;;;;;;;17.73;100.00;96806.31;4966131;28;20105;-68
2023/07/08 04:28:19;;;;;;;15.63;7.07;;;;;;;17.84;100.00;96802.66;4962059;28;20395;-68
2023/07/08 04:30:45;;;;;;;14.27;6.85;;;;;;;17.99;100.00;96817.97;4971150;28;20046;-68
2023/07/08 04:33:13;;;;;;;18.80;6.97;;;;;;;18.27;100.00;96818.81;4958157;28;20047;-68
2023/07/08 04:35:40;;;;;;;14.65;6.40;;;;;;;18.51;100.00;96822.47;4966290;28;20038;-68
2023/07/08 04:38:09;;;;;;;18.95;7.40;;;;;;;18.59;100.00;96826.72;4960428;28;20400;-68
2023/07/08 04:40:42;;;;;;;14.07;6.82;;;;;;;18.69;100.00;96813.91;4965306;28;20105;-68
2023/07/08 04:43:10;;;;;;;14.30;6.90;;;;;;;18.77;100.00;96823.72;4943027;28;20039;-67
2023/07/08 04:45:37;;;;;;;10.73;5.70;;;;;;;18.90;100.00;96837.81;4965606;28;20064;-68
2023/07/08 04:48:08;;;;;;;12.88;6.60;;;;;;;18.91;100.00;96845.75;4947541;28;20052;-65
2023/07/08 04:50:36;;;;;;;15.50;8.05;;;;;;;18.90;100.00;96849.69;4965609;28;20067;-68
2023/07/08 04:53:02;;;;;;;13.88;7.30;;;;;;;19.00;100.00;96861.88;4967761;28;20042;-64
2023/07/08 04:55:28;;;;;;;13.88;7.28;;;;;;;19.07;100.00;96853.44;4974482;28;20042;-69
2023/07/08 04:57:53;;;;;;;13.50;7.43;;;;;;;19.14;100.00;96860.09;4966190;28;20433;-68
2023/07/08 05:00:19;;;;;;;17.52;7.80;;;;;;;19.14;100.00;96857.31;4968540;28;20077;-69
2023/07/08 05:02:45;;;;;;;12.43;6.55;;;;;;;19.12;100.00;96860.50;4979591;28;20050;-69
2023/07/08 05:05:10;;;;;;;16.25;7.07;;;;;;;19.04;100.00;96865.38;4975470;28;20038;-70
2023/07/08 05:07:36;;;;;;;15.20;7.05;;;;;;;18.99;100.00;96865.84;4977829;28;20039;-69
2023/07/08 05:10:01;;;;;;;13.55;7.50;;;;;;;18.99;100.00;96862.28;4978110;28;20043;-69
2023/07/08 05:12:27;;;;;;;13.38;6.93;;;;;;;19.25;100.00;96861.50;4971800;28;20042;-68
2023/07/08 05:14:52;;;;;;;15.25;8.52;;;;;;;19.18;100.00;96858.06;4974756;28;20045;-69
2023/07/08 05:17:17;;;;;;;20.48;8.07;;;;;;;18.85;100.00;96852.97;4970551;28;20035;-69
2023/07/08 05:19:44;;;;;;;19.27;8.00;;;;;;;18.48;100.00;96851.06;4977477;28;20049;-69
2023/07/08 05:22:10;;;;;;;17.55;7.78;;;;;;;18.20;100.00;96854.94;4972878;28;20039;-68
2023/07/08 05:24:36;;;;;;;12.88;7.05;;;;;;;18.54;100.00;96863.25;4970699;28;20184;-69
2023/07/08 05:27:03;;;;;;;13.85;7.28;;;;;;;18.76;100.00;96857.41;4967582;28;20122;-65
2023/07/08 05:29:29;;;;;;;14.38;7.32;;;;;;;18.86;100.00;96868.41;4966765;28;20046;-69
2023/07/08 05:31:54;;;;;;;10.77;6.22;;;;;;;19.13;100.00;96869.63;4964425;28;20133;-68
2023/07/08 05:34:20;;;;;;;12.27;6.55;;;;;;;19.36;100.00;96877.22;4963094;28;20047;-68
2023/07/08 05:36:46;;;;;;;16.48;6.90;;;;;;;19.44;100.00;96879.44;4970559;28;20042;-67
2023/07/08 05:39:11;;;;;;;16.17;7.50;;;;;;;19.34;100.00;96879.59;4960995;28;20042;-68
2023/07/08 05:41:36;;;;;;;14.10;7.43;;;;;;;19.41;100.00;96887.84;4964063;28;20041;-68
2023/07/08 05:44:02;;;;;;;13.80;7.07;;;;;;;19.60;100.00;96897.47;4961731;28;20035;-65
2023/07/08 05:46:27;;;;;;;13.15;6.63;;;;;;;19.76;100.00;96892.06;4961668;28;20065;-68
2023/07/08 05:48:53;;;;;;;15.77;7.50;;;;;;;19.79;100.00;96891.22;4963664;28;20049;-68
2023/07/08 05:51:19;;;;;;;20.20;7.15;;;;;;;19.92;100.00;96896.19;4958111;28;20051;-68
2023/07/08 05:53:44;;;;;;;13.10;6.85;;;;;;;20.01;100.00;96896.41;4963809;28;20043;-68
2023/07/08 05:56:10;;;;;;;11.13;6.63;;;;;;;20.13;100.00;96901.34;4958558;28;20049;-68
2023/07/08 05:58:35;;;;;;;20.17;7.60;;;;;;;20.19;100.00;96910.75;4963397;28;20057;-68
2023/07/08 06:01:00;;;;;;;14.38;8.48;;;;;;;20.19;100.00;96912.78;4961636;28;20542;-68
2023/07/08 06:03:26;;;;;;;16.30;8.57;;;;;;;20.17;100.00;96917.97;4958452;28;20404;-67
2023/07/08 06:05:52;;;;;;;13.18;7.53;;;;;;;20.25;100.00;96913.84;4963073;28;20039;-67
2023/07/08 06:08:17;;;;;;;16.60;6.65;;;;;;;20.57;100.00;96918.78;4958326;28;20098;-67
2023/07/08 06:10:45;;;;;;;12.45;5.40;;;;;;;20.72;100.00;96930.44;4967554;28;20043;-67
2023/07/08 06:13:12;;;;;;;16.35;5.20;;;;;;;20.90;100.00;96932.84;4971687;28;20081;-67
2023/07/08 06:15:37;;;;;;;13.90;4.53;;;;;;;20.95;99.18;96928.78;4966399;28;20526;-69
2023/07/08 06:18:03;;;;;;;11.25;4.07;;;;;;;20.94;97.82;96935.56;4960318;28;20074;-64
2023/07/08 06:20:29;;;;;;;9.63;3.78;;;;;;;20.91;94.46;96942.78;4945996;28;20444;-69
2023/07/08 06:22:54;;;;;;;7.20;3.30;;;;;;;20.69;96.56;96948.00;4962867;28;20035;-69
2023/07/08 06:25:20;;;;;;;7.30;3.25;;;;;;;20.75;95.50;96951.06;4959363;28;20042;-69
2023/07/08 06:27:46;;;;;;;8.13;2.92;;;;;;;21.00;91.49;96947.78;4961801;28;20345;-69
2023/07/08 06:30:11;;;;;;;8.82;3.30;;;;;;;20.88;91.82;96970.69;4958776;28;20054;-67
2023/07/08 06:32:37;;;;;;;10.13;3.25;;;;;;;20.65;93.96;96957.63;4961485;28;20248;-69
2023/07/08 06:35:03;;;;;;;6.60;3.00;;;;;;;20.80;92.74;96961.72;4959169;28;20077;-66
2023/07/08 06:37:29;;;;;;;9.02;3.13;;;;;;;20.93;90.23;96961.84;4968942;28;20046;-68
2023/07/08 06:39:54;;;;;;;6.68;2.65;;;;;;;20.76;91.78;96969.31;4973610;28;20388;-69
2023/07/08 06:42:19;;;;;;;7.95;2.40;;;;;;;20.61;91.59;96971.59;4966606;28;20039;-70
2023/07/08 06:44:50;;;;;;;5.60;2.60;;;;;;;20.93;89.14;96979.34;4967450;28;20090;-69
2023/07/08 06:47:20;;;;;;;5.28;2.28;;;;;;;21.13;87.10;96979.31;4959273;28;20043;-68
2023/07/08 06:49:46;;;;;;;8.00;2.40;;;;;;;21.10;87.68;96982.16;4963421;28;20053;-68
2023/07/08 06:52:11;;;;;;;6.55;2.10;;;;;;;21.15;85.83;96988.03;4957098;28;20106;-69
2023/07/08 06:54:37;;;;;;;6.78;2.17;;;;;;;21.00;88.27;96984.75;4962818;28;20042;-69
2023/07/08 06:57:02;;;;;;;5.05;2.30;;;;;;;20.82;89.85;96984.34;4960981;28;20515;-66
2023/07/08 06:59:28;;;;;;;5.00;2.10;;;;;;;20.75;89.13;96982.47;4960702;28;20396;-69
2023/07/08 07:01:54;;;;;;;6.93;1.88;;;;;;;20.84;88.02;96984.69;4963187;28;20042;-69
2023/07/08 07:04:19;;;;;;;6.40;1.90;;;;;;;21.11;87.56;96989.31;4957948;28;20051;-69
2023/07/08 07:06:45;;;;;;;6.70;2.00;;;;;;;21.34;85.18;96996.81;4962987;28;20193;-68
2023/07/08 07:09:10;;;;;;;5.45;2.13;;;;;;;21.50;83.20;96990.47;4956492;28;20050;-69
2023/07/08 07:11:36;;;;;;;5.22;2.45;;;;;;;21.31;85.47;96994.88;4962896;28;20050;-68
2023/07/08 07:14:02;;;;;;;10.35;4.35;;;;;;;21.17;87.02;96990.38;4962408;28;20097;-69
2023/07/08 07:16:28;;;;;;;6.47;1.92;;;;;;;21.49;85.57;96989.72;4958445;28;20070;-69
2023/07/08 07:18:53;;;;;;;5.93;2.00;;;;;;;21.89;81.56;96999.94;4962613;28;20093;-68
2023/07/08 07:21:19;;;;;;;4.05;1.60;;;;;;;22.03;80.60;96996.03;4940534;28;20054;-68
2023/07/08 07:23:44;;;;;;;4.00;1.70;;;;;;;22.33;76.71;96992.13;4962672;28;20043;-69
2023/07/08 07:26:10;;;;;;;4.70;1.70;;;;;;;22.59;76.98;96993.03;4957064;28;20105;-68
2023/07/08 07:28:35;;;;;;;3.92;1.70;;;;;;;22.69;74.65;96993.97;4962883;28;20051;-66
2023/07/08 07:31:00;;;;;;;5.32;1.80;;;;;;;22.05;76.38;96999.97;4960908;28;20047;-70
2023/07/08 07:33:26;;;;;;;4.80;2.00;;;;;;;22.26;76.00;96990.31;4956026;28;20053;-71
2023/07/08 07:35:52;;;;;;;4.78;1.83;;;;;;;22.33;74.90;96986.56;4961279;28;20042;-70
2023/07/08 07:38:17;;;;;;;4.72;2.00;;;;;;;22.67;74.00;96985.25;4954474;28;20039;-69
2023/07/08 07:40:43;;;;;;;4.40;1.80;;;;;;;22.65;74.05;96980.13;4962807;28;20370;-71
2023/07/08 07:43:09;;;;;;;3.25;1.55;;;;;;;22.94;72.55;96984.13;4956866;28;20504;-70
2023/07/08 07:45:35;;;;;;;3.40;1.70;;;;;;;23.07;72.51;96982.97;4961672;28;20043;-68
2023/07/08 07:48:01;;;;;;;3.90;1.60;;;;;;;23.13;70.36;96993.59;4962962;28;20043;-70
2023/07/08 07:50:27;;;;;;;6.20;1.70;;;;;;;22.98;71.35;96996.75;4959291;28;20057;-69
2023/07/08 07:52:53;;;;;;;4.55;1.83;;;;;;;22.77;72.18;97006.50;4960059;28;20066;-69
2023/07/08 07:55:18;;;;;;;5.65;2.00;;;;;;;22.82;70.26;97022.72;4955046;28;20091;-67
2023/07/08 07:57:45;;;;;;;5.90;1.48;;;;;;;22.39;73.51;97015.47;4962466;28;20511;-69
2023/07/08 08:00:11;;;;;;;10.27;2.10;;;;;;;22.67;73.47;97019.56;4960699;28;20039;-70
2023/07/08 08:02:37;;;;;;;11.50;2.55;;;;;;;22.58;72.88;97013.81;4962553;28;20125;-69
2023/07/08 08:05:02;;;;;;;8.75;2.30;;;;;;;22.89;71.92;97007.78;4959703;28;20097;-67
2023/07/08 08:07:28;;;;;;;5.07;1.80;;;;;;;23.06;70.48;97002.94;4959891;28;20050;-69
2023/07/08 08:09:53;;;;;;;7.10;2.08;;;;;;;23.32;69.76;97009.41;4962378;28;20050;-70
2023/07/08 08:12:19;;;;;;;9.35;1.67;;;;;;;23.53;68.43;97007.94;4957855;28;20388;-67
2023/07/08 08:14:44;;;;;;;13.90;1.90;;;;;;;23.64;67.03;97008.44;4966343;28;20051;-70
2023/07/08 08:17:09;;;;;;;14.00;2.17;;;;;;;23.88;65.97;97008.13;4958135;28;20113;-69
2023/07/08 08:19:35;;;;;;;17.42;2.60;;;;;;;24.05;65.60;97011.56;4942392;28;20046;-68
2023/07/08 08:22:01;;;;;;;6.82;2.17;;;;;;;24.33;64.32;97006.28;4925474;29;20145;-69
2023/07/08 08:24:26;;;;;;;5.15;1.70;;;;;;;24.55;64.12;97004.31;4937454;28;20036;-69
2023/07/08 08:26:52;;;;;;;5.07;1.83;;;;;;;24.68;62.67;97009.88;4950975;28;20047;-70
2023/07/08 08:29:17;;;;;;;5.22;1.92;;;;;;;24.83;61.55;97004.59;4952619;28;20077;-71
2023/07/08 08:31:42;;;;;;;10.88;2.00;;;;;;;25.00;60.35;97016.38;4969519;28;20153;-71
2023/07/08 08:34:08;;;;;;;5.35;1.67;;;;;;;24.78;59.57;97010.75;4964296;28;20486;-70
2023/07/08 08:36:33;;;;;;;2.78;1.60;;;;;;;24.94;59.75;97007.00;4966790;28;20051;-70
2023/07/08 08:38:58;;;;;;;3.95;1.60;;;;;;;25.05;58.79;97010.19;4964981;28;20102;-70
2023/07/08 08:41:31;;;;;;;4.53;1.33;;;;;;;24.85;57.79;97006.91;4958858;28;20062;-66
2023/07/08 08:43:59;;;;;;;5.05;1.70;;;;;;;25.08;58.65;97000.06;4972730;28;20369;-70
2023/07/08 08:46:43;;;;;;;5.22;1.83;;;;;;;25.34;56.64;97000.75;4963842;28;20043;-70
2023/07/08 08:49:29;;;;;;;4.53;1.80;;;;;;;25.60;56.17;96992.16;4964097;28;20345;-70
2023/07/08 08:51:58;;;;;;;4.65;1.45;;;;;;;25.68;56.46;96996.25;4970910;28;20102;-67
2023/07/08 08:54:24;;;;;;;5.40;1.73;;;;;;;25.83;56.31;96999.25;4965511;28;20482;-69
2023/07/08 08:57:17;;;;;;;4.18;1.48;;;;;;;26.15;54.58;97000.81;4969681;28;20214;-70
2023/07/08 08:59:50;;;;;;;9.63;5.25;;;;;;;25.90;54.18;97002.56;4965399;28;20039;-69
2023/07/08 09:02:39;;;;;;;4.93;1.70;;;;;;;25.89;55.17;96989.78;4959339;28;20170;-71
2023/07/08 09:05:08;;;;;;;4.93;1.70;;;;;;;26.31;53.17;96985.72;4961085;28;20042;-66
2023/07/08 09:07:37;;;;;;;;;;;;;;;26.95;51.32;96993.41;4965643;28;20329;-72
2023/07/08 09:10:31;;;;;;;5.85;1.92;;;;;;;27.36;49.89;96993.22;4962591;28;20024;-64
2023/07/08 09:12:59;;;;;;;3.40;1.48;;;;;;;27.98;49.32;96987.09;4953202;28;20042;-68
2023/07/08 09:15:26;;;;;;;15.50;2.90;;;;;;;27.54;48.68;96981.13;4959617;28;20042;-69
2023/07/08 09:17:57;;;;;;;27.20;3.53;;;;;;;27.75;48.15;96980.13;4964382;28;20046;-69
2023/07/08 09:20:27;;;;;;;8.88;2.25;;;;;;;28.05;46.75;96982.34;4942528;28;20389;-71
2023/07/08 09:23:11;;;;;;;6.43;1.83;;;;;;;27.58;47.36;96981.75;4944300;28;20047;-71
2023/07/08 09:25:49;;;;;;;4.20;1.60;;;;;;;28.27;46.55;96982.84;4963808;28;20042;-70
2023/07/08 09:28:14;;;;;;;9.05;2.45;;;;;;;28.24;46.58;96986.63;4959607;28;20076;-70
2023/07/08 09:30:40;;;;;;;6.03;1.90;;;;;;;28.78;44.69;96983.91;4963513;28;20524;-71
2023/07/08 09:33:08;;;;;;;5.53;2.42;;;;;;;29.00;43.89;96991.25;4959178;28;20050;-69
2023/07/08 09:35:43;;;;;;;4.90;1.98;;;;;;;28.83;43.93;96994.53;4964665;28;20038;-71
2023/07/08 09:38:14;;;;;;;8.48;2.55;;;;;;;28.70;43.99;96994.78;4959017;28;20034;-71
2023/07/08 09:40:46;;;;;;;4.38;1.80;;;;;;;28.86;42.39;96999.19;4963591;28;20055;-69
2023/07/08 09:43:14;;;;;;;9.88;2.20;;;;;;;28.94;43.43;96997.56;4958587;28;20082;-69
2023/07/08 09:45:46;;;;;;;5.57;2.00;;;;;;;29.10;42.68;96999.13;4967181;28;20431;-70
2023/07/08 09:48:20;;;;;;;5.82;1.70;;;;;;;29.36;41.51;97001.41;4959676;28;20038;-71
2023/07/08 09:50:48;;;;;;;5.53;1.88;;;;;;;29.49;42.87;96995.47;4964119;28;20051;-71
2023/07/08 09:53:14;;;;;;;7.00;2.70;;;;;;;29.62;42.57;96995.97;4958985;28;20057;-71
2023/07/08 09:55:40;;;;;;;3.95;1.60;;;;;;;29.51;42.47;96992.94;4963889;28;20133;-71
2023/07/08 09:58:08;;;;;;;4.10;1.63;;;;;;;29.19;43.69;97000.31;4959466;28;20097;-67
2023/07/08 10:00:39;;;;;;;2.97;1.70;;;;;;;28.98;43.09;97003.78;4963225;28;20051;-70
2023/07/08 10:03:16;;;;;;;4.05;1.80;;;;;;;29.25;43.68;96993.53;4958240;28;20400;-70
2023/07/08 10:05:43;;;;;;;4.55;1.77;;;;;;;29.43;43.58;97005.91;4947181;28;20133;-71
2023/07/08 10:08:14;;;;;;;6.15;2.13;;;;;;;29.43;43.80;97000.25;4960099;28;20417;-71
2023/07/08 10:10:40;;;;;;;7.03;1.88;;;;;;;29.57;43.58;97007.94;4964376;28;20058;-71
2023/07/08 10:13:31;;;;;;;6.90;2.00;;;;;;;29.20;44.31;96999.84;4959164;28;20039;-69
2023/07/08 10:16:16;;;;;;;3.45;1.77;;;;;;;28.82;43.96;96998.59;4965062;28;20043;-70
2023/07/08 10:18:41;;;;;;;8.40;1.88;;;;;;;28.40;44.78;97008.72;4963849;28;20121;-70
2023/07/08 10:21:22;;;;;;;7.20;1.55;;;;;;;28.39;46.03;97006.38;4957106;28;20488;-69
2023/07/08 10:24:36;;;;;;;6.30;2.08;;;;;;;28.53;45.19;97004.91;4964120;28;20047;-69
2023/07/08 10:27:23;;;;;;;6.25;1.77;;;;;;;29.03;43.75;97007.19;4890486;29;20040;-68
2023/07/08 10:29:57;;;;;;;5.05;1.60;;;;;;;29.66;43.10;97013.47;4958403;28;20057;-71
2023/07/08 10:32:36;;;;;;;7.40;1.80;;;;;;;29.70;42.83;97016.88;4957866;28;20557;-70
2023/07/08 10:35:14;;;;;;;6.20;1.90;;;;;;;30.17;41.89;97007.88;4963581;28;20046;-73
2023/07/08 10:37:58;;;;;;;4.33;1.70;;;;;;;30.44;41.17;97015.97;4963824;28;20069;-71
2023/07/08 10:40:34;;;;;;;4.78;1.77;;;;;;;30.46;40.84;97019.06;4949739;28;21043;-69
2023/07/08 10:43:22;;;;;;;5.32;1.77;;;;;;;30.05;41.82;97023.84;4964543;28;20043;-69
2023/07/08 10:46:12;;;;;;;3.80;1.98;;;;;;;29.72;42.84;97017.16;4950730;28;20065;-70
2023/07/08 10:49:07;;;;;;;4.55;2.22;;;;;;;29.39;43.37;97008.91;4963229;28;20057;-68
2023/07/08 10:51:46;;;;;;;5.80;2.03;;;;;;;29.32;44.47;97014.94;4931760;28;20051;-69
2023/07/08 10:54:26;;;;;;;5.55;1.85;;;;;;;29.13;44.41;97006.59;4958575;28;20134;-68
2023/07/08 10:57:16;;;;;;;7.38;2.05;;;;;;;29.39;44.21;97002.47;4963721;28;20496;-69
2023/07/08 10:59:56;;;;;;;5.07;2.05;;;;;;;29.71;42.44;97009.97;4966082;28;20550;-69
2023/07/08 11:02:33;;;;;;;5.50;1.88;;;;;;;29.62;43.62;97004.44;4958361;28;20369;-68
2023/07/08 11:05:05;;;;;;;4.20;1.63;;;;;;;29.74;42.64;97014.66;4965147;28;20035;-68
2023/07/08 11:07:43;;;;;;;4.68;1.80;;;;;;;29.47;43.60;97006.47;4965746;28;20155;-70
2023/07/08 11:10:20;;;;;;;6.38;2.42;;;;;;;29.66;42.91;97004.25;4962503;28;20046;-70
2023/07/08 11:12:50;;;;;;;3.97;1.90;;;;;;;29.79;41.91;97001.91;4947343;28;20047;-68
2023/07/08 11:15:26;;;;;;;5.95;1.80;;;;;;;29.91;41.45;97011.34;4961748;28;20412;-69
2023/07/08 11:18:06;;;;;;;5.05;2.10;;;;;;;28.65;44.78;97001.09;4968178;28;20047;-68
2023/07/08 11:20:45;;;;;;;7.00;2.08;;;;;;;28.09;45.50;96995.00;4966648;28;20087;-68
2023/07/08 11:23:23;;;;;;;5.13;1.70;;;;;;;27.77;45.75;96996.53;4960931;28;20062;-67
2023/07/08 11:25:51;;;;;;;5.85;2.22;;;;;;;28.76;44.42;96987.22;4966487;28;20057;-68
2023/07/08 11:28:21;;;;;;;4.63;1.67;;;;;;;29.46;43.18;96988.78;4960001;28;20046;-69
2023/07/08 11:30:49;;;;;;;4.97;1.80;;;;;;;30.10;41.26;96998.50;4964617;28;20488;-68
2023/07/08 11:33:19;;;;;;;4.50;1.65;;;;;;;30.41;40.80;97004.88;4961164;28;20426;-69
2023/07/08 11:35:49;;;;;;;9.60;1.88;;;;;;;30.65;40.11;97005.47;4965973;28;20070;-68